sensor_id;sensor_type;location;lat;lon;timestamp;P1;durP1;ratioP1;P2;durP2;ratioP2
62153;SDS011;48140;45.486;9.226;2023-05-10T00:02:12;12.20;;;7.40;;
62153;SDS011;48140;45.486;9.226;2023-05-10T00:04:38;11.30;;;7.03;;
62153;SDS011;48140;45.486;9.226;2023-05-10T00:07:03;13.45;;;7.88;;
62153;SDS011;48140;45.486;9.226;2023-05-10T00:09:29;11.10;;;7.13;;
62153;SDS011;48140;45.486;9.226;2023-05-10T00:11:55;15.15;;;7.05;;
62153;SDS011;48140;45.486;9.226;2023-05-10T00:14:23;11.60;;;7.25;;
62153;SDS011;48140;45.486;9.226;2023-05-10T00:16:48;10.40;;;6.93;;
62153;SDS011;48140;45.486;9.226;2023-05-10T00:19:15;11.27;;;7.25;;
62153;SDS011;48140;45.486;9.226;2023-05-10T00:21:40;13.02;;;7.82;;
62153;SDS011;48140;45.486;9.226;2023-05-10T00:24:09;10.75;;;7.35;;
62153;SDS011;48140;45.486;9.226;2023-05-10T00:26:37;11.68;;;7.30;;
62153;SDS011;48140;45.486;9.226;2023-05-10T00:29:02;12.93;;;8.10;;
62153;SDS011;48140;45.486;9.226;2023-05-10T00:31:28;11.75;;;7.53;;
62153;SDS011;48140;45.486;9.226;2023-05-10T00:33:55;10.88;;;7.00;;
62153;SDS011;48140;45.486;9.226;2023-05-10T00:36:21;10.90;;;6.97;;
62153;SDS011;48140;45.486;9.226;2023-05-10T00:38:47;11.50;;;7.47;;
62153;SDS011;48140;45.486;9.226;2023-05-10T00:41:12;10.35;;;7.30;;
62153;SDS011;48140;45.486;9.226;2023-05-10T00:43:38;11.27;;;7.80;;
62153;SDS011;48140;45.486;9.226;2023-05-10T00:46:04;10.40;;;6.70;;
62153;SDS011;48140;45.486;9.226;2023-05-10T00:48:30;12.05;;;7.65;;
62153;SDS011;48140;45.486;9.226;2023-05-10T00:51:00;11.32;;;7.55;;
62153;SDS011;48140;45.486;9.226;2023-05-10T00:53:27;11.68;;;7.60;;
62153;SDS011;48140;45.486;9.226;2023-05-10T00:55:53;11.68;;;7.63;;
62153;SDS011;48140;45.486;9.226;2023-05-10T00:58:19;13.73;;;7.43;;
62153;SDS011;48140;45.486;9.226;2023-05-10T03:37:06;6.57;;;3.95;;
62153;SDS011;48140;45.486;9.226;2023-05-10T03:39:32;5.93;;;3.75;;
62153;SDS011;48140;45.486;9.226;2023-05-10T03:41:58;8.18;;;3.70;;
62153;SDS011;48140;45.486;9.226;2023-05-10T03:44:26;6.25;;;3.80;;
62153;SDS011;48140;45.486;9.226;2023-05-10T03:46:54;6.30;;;3.38;;
62153;SDS011;48140;45.486;9.226;2023-05-10T03:49:24;6.60;;;3.78;;
62153;SDS011;48140;45.486;9.226;2023-05-10T03:51:50;6.75;;;3.60;;
62153;SDS011;48140;45.486;9.226;2023-05-10T03:54:18;5.90;;;3.63;;
62153;SDS011;48140;45.486;9.226;2023-05-10T03:56:47;5.60;;;3.85;;
62153;SDS011;48140;45.486;9.226;2023-05-10T03:59:14;5.80;;;3.53;;
62153;SDS011;48140;45.486;9.226;2023-05-10T04:01:41;6.70;;;3.88;;
62153;SDS011;48140;45.486;9.226;2023-05-10T04:04:07;5.28;;;3.60;;
62153;SDS011;48140;45.486;9.226;2023-05-10T04:06:33;6.13;;;3.70;;
62153;SDS011;48140;45.486;9.226;2023-05-10T04:09:00;6.28;;;3.55;;
62153;SDS011;48140;45.486;9.226;2023-05-10T04:11:28;6.05;;;3.33;;
62153;SDS011;48140;45.486;9.226;2023-05-10T04:13:54;6.18;;;3.90;;
62153;SDS011;48140;45.486;9.226;2023-05-10T04:16:20;5.57;;;3.45;;
62153;SDS011;48140;45.486;9.226;2023-05-10T04:18:45;5.55;;;3.00;;
62153;SDS011;48140;45.486;9.226;2023-05-10T04:21:12;6.25;;;3.20;;
62153;SDS011;48140;45.486;9.226;2023-05-10T04:23:41;6.85;;;3.50;;
62153;SDS011;48140;45.486;9.226;2023-05-10T04:26:07;5.05;;;3.22;;
62153;SDS011;48140;45.486;9.226;2023-05-10T06:27:12;7.43;;;3.78;;
62153;SDS011;48140;45.486;9.226;2023-05-10T06:29:55;6.30;;;4.35;;
62153;SDS011;48140;45.486;9.226;2023-05-10T06:32:27;6.18;;;3.78;;
62153;SDS011;48140;45.486;9.226;2023-05-10T06:34:53;5.68;;;3.47;;
62153;SDS011;48140;45.486;9.226;2023-05-10T06:37:22;5.43;;;3.40;;
62153;SDS011;48140;45.486;9.226;2023-05-10T06:39:48;6.90;;;3.40;;
62153;SDS011;48140;45.486;9.226;2023-05-10T06:42:17;5.03;;;3.40;;
62153;SDS011;48140;45.486;9.226;2023-05-10T06:44:46;4.97;;;3.22;;
62153;SDS011;48140;45.486;9.226;2023-05-10T06:47:15;5.70;;;3.40;;
62153;SDS011;48140;45.486;9.226;2023-05-10T06:49:50;7.07;;;3.53;;
62153;SDS011;48140;45.486;9.226;2023-05-10T06:52:16;6.75;;;3.55;;
62153;SDS011;48140;45.486;9.226;2023-05-10T06:54:42;5.53;;;3.65;;
62153;SDS011;48140;45.486;9.226;2023-05-10T06:57:17;4.43;;;3.15;;
62153;SDS011;48140;45.486;9.226;2023-05-10T06:59:46;5.18;;;3.50;;
62153;SDS011;48140;45.486;9.226;2023-05-10T07:02:18;5.95;;;3.70;;
62153;SDS011;48140;45.486;9.226;2023-05-10T07:05:09;6.00;;;2.95;;
62153;SDS011;48140;45.486;9.226;2023-05-10T07:07:35;6.55;;;3.20;;
62153;SDS011;48140;45.486;9.226;2023-05-10T07:10:07;5.00;;;3.28;;
62153;SDS011;48140;45.486;9.226;2023-05-10T07:12:39;4.93;;;3.20;;
62153;SDS011;48140;45.486;9.226;2023-05-10T07:15:39;5.93;;;3.13;;
62153;SDS011;48140;45.486;9.226;2023-05-10T07:18:11;4.45;;;2.95;;
62153;SDS011;48140;45.486;9.226;2023-05-10T07:20:45;4.78;;;3.17;;
62153;SDS011;48140;45.486;9.226;2023-05-10T07:23:11;5.20;;;3.20;;
62153;SDS011;48140;45.486;9.226;2023-05-10T07:29:10;6.22;;;3.00;;
62153;SDS011;48140;45.486;9.226;2023-05-10T07:38:10;4.20;;;2.43;;
62153;SDS011;48140;45.486;9.226;2023-05-10T07:40:38;4.32;;;2.50;;
62153;SDS011;48140;45.486;9.226;2023-05-10T07:43:11;4.03;;;2.50;;
62153;SDS011;48140;45.486;9.226;2023-05-10T07:45:37;4.47;;;2.80;;
62153;SDS011;48140;45.486;9.226;2023-05-10T07:48:06;4.72;;;2.50;;
62153;SDS011;48140;45.486;9.226;2023-05-10T07:50:43;3.70;;;2.43;;
62153;SDS011;48140;45.486;9.226;2023-05-10T07:53:18;3.50;;;2.50;;
62153;SDS011;48140;45.486;9.226;2023-05-10T07:55:57;4.82;;;2.50;;
62153;SDS011;48140;45.486;9.226;2023-05-10T07:58:30;5.45;;;2.60;;
62153;SDS011;48140;45.486;9.226;2023-05-10T08:00:59;3.97;;;2.58;;
62153;SDS011;48140;45.486;9.226;2023-05-10T08:03:25;4.13;;;2.53;;
62153;SDS011;48140;45.486;9.226;2023-05-10T08:06:21;3.50;;;2.28;;
62153;SDS011;48140;45.486;9.226;2023-05-10T08:08:48;4.63;;;2.60;;
62153;SDS011;48140;45.486;9.226;2023-05-10T08:11:15;4.90;;;2.45;;
62153;SDS011;48140;45.486;9.226;2023-05-10T08:13:45;3.47;;;2.28;;
62153;SDS011;48140;45.486;9.226;2023-05-10T08:16:11;4.60;;;2.35;;
62153;SDS011;48140;45.486;9.226;2023-05-10T08:18:38;4.65;;;2.75;;
62153;SDS011;48140;45.486;9.226;2023-05-10T08:21:04;3.83;;;2.42;;
62153;SDS011;48140;45.486;9.226;2023-05-10T08:23:30;5.53;;;2.75;;
62153;SDS011;48140;45.486;9.226;2023-05-10T08:25:56;3.67;;;2.30;;
62153;SDS011;48140;45.486;9.226;2023-05-10T08:28:22;4.70;;;2.78;;
62153;SDS011;48140;45.486;9.226;2023-05-10T08:30:49;6.15;;;2.60;;
62153;SDS011;48140;45.486;9.226;2023-05-10T08:33:17;4.25;;;2.58;;
62153;SDS011;48140;45.486;9.226;2023-05-10T08:35:43;3.83;;;2.40;;
62153;SDS011;48140;45.486;9.226;2023-05-10T08:38:09;4.05;;;2.58;;
62153;SDS011;48140;45.486;9.226;2023-05-10T08:40:39;5.07;;;2.72;;
62153;SDS011;48140;45.486;9.226;2023-05-10T08:43:09;4.45;;;2.88;;
62153;SDS011;48140;45.486;9.226;2023-05-10T08:45:40;5.30;;;2.40;;
62153;SDS011;48140;45.486;9.226;2023-05-10T08:48:18;3.55;;;2.50;;
62153;SDS011;48140;45.486;9.226;2023-05-10T08:50:46;6.35;;;2.80;;
62153;SDS011;48140;45.486;9.226;2023-05-10T08:53:21;4.40;;;2.85;;
62153;SDS011;48140;45.486;9.226;2023-05-10T08:55:51;4.68;;;2.83;;
62153;SDS011;48140;45.486;9.226;2023-05-10T08:58:20;4.88;;;2.55;;
62153;SDS011;48140;45.486;9.226;2023-05-10T09:00:48;3.65;;;2.60;;
62153;SDS011;48140;45.486;9.226;2023-05-10T09:03:17;3.75;;;2.30;;
62153;SDS011;48140;45.486;9.226;2023-05-10T09:05:43;4.20;;;2.53;;
62153;SDS011;48140;45.486;9.226;2023-05-10T09:08:09;6.43;;;2.65;;
62153;SDS011;48140;45.486;9.226;2023-05-10T09:10:38;4.35;;;2.47;;
62153;SDS011;48140;45.486;9.226;2023-05-10T09:13:21;4.70;;;2.35;;
62153;SDS011;48140;45.486;9.226;2023-05-10T09:16:03;4.70;;;2.80;;
62153;SDS011;48140;45.486;9.226;2023-05-10T09:18:38;3.97;;;2.53;;
62153;SDS011;48140;45.486;9.226;2023-05-10T09:24:41;4.15;;;2.40;;
62153;SDS011;48140;45.486;9.226;2023-05-10T09:34:39;3.75;;;2.15;;
62153;SDS011;48140;45.486;9.226;2023-05-10T09:41:15;3.65;;;2.28;;
62153;SDS011;48140;45.486;9.226;2023-05-10T09:44:07;5.43;;;2.53;;
62153;SDS011;48140;45.486;9.226;2023-05-10T09:47:16;2.85;;;2.15;;
62153;SDS011;48140;45.486;9.226;2023-05-10T09:49:43;3.38;;;2.15;;
62153;SDS011;48140;45.486;9.226;2023-05-10T10:10:30;4.60;;;2.30;;
62153;SDS011;48140;45.486;9.226;2023-05-10T11:52:35;5.83;;;2.77;;
62153;SDS011;48140;45.486;9.226;2023-05-10T12:12:23;4.35;;;2.95;;
62153;SDS011;48140;45.486;9.226;2023-05-10T12:47:13;4.53;;;2.30;;
62153;SDS011;48140;45.486;9.226;2023-05-10T13:08:00;3.80;;;2.10;;
62153;SDS011;48140;45.486;9.226;2023-05-10T13:14:56;4.35;;;2.40;;
62153;SDS011;48140;45.486;9.226;2023-05-10T13:24:54;2.70;;;2.00;;
62153;SDS011;48140;45.486;9.226;2023-05-10T13:27:20;4.80;;;2.83;;
62153;SDS011;48140;45.486;9.226;2023-05-10T13:33:19;3.65;;;2.35;;
62153;SDS011;48140;45.486;9.226;2023-05-10T13:43:19;3.78;;;2.50;;
62153;SDS011;48140;45.486;9.226;2023-05-10T13:45:45;3.63;;;2.58;;
62153;SDS011;48140;45.486;9.226;2023-05-10T13:48:11;3.63;;;2.67;;
62153;SDS011;48140;45.486;9.226;2023-05-10T13:50:49;5.72;;;2.90;;
62153;SDS011;48140;45.486;9.226;2023-05-10T13:53:51;3.60;;;2.47;;
62153;SDS011;48140;45.486;9.226;2023-05-10T13:56:29;3.85;;;2.63;;
62153;SDS011;48140;45.486;9.226;2023-05-10T13:58:56;3.88;;;2.50;;
62153;SDS011;48140;45.486;9.226;2023-05-10T14:01:23;3.35;;;2.33;;
62153;SDS011;48140;45.486;9.226;2023-05-10T14:03:55;3.88;;;2.58;;
62153;SDS011;48140;45.486;9.226;2023-05-10T14:06:46;4.68;;;2.35;;
62153;SDS011;48140;45.486;9.226;2023-05-10T14:16:57;4.33;;;2.73;;
62153;SDS011;48140;45.486;9.226;2023-05-10T16:55:55;3.90;;;2.55;;
62153;SDS011;48140;45.486;9.226;2023-05-10T18:22:58;4.10;;;2.53;;
62153;SDS011;48140;45.486;9.226;2023-05-10T19:24:11;4.32;;;2.63;;
62153;SDS011;48140;45.486;9.226;2023-05-10T19:27:40;5.80;;;2.80;;
62153;SDS011;48140;45.486;9.226;2023-05-10T20:02:12;5.85;;;3.70;;
62153;SDS011;48140;45.486;9.226;2023-05-10T20:04:47;5.78;;;3.90;;
62153;SDS011;48140;45.486;9.226;2023-05-10T20:07:14;7.60;;;4.05;;
